createdAt,value
2019-03-30T00:00:25.662Z,10.15
2019-03-30T00:02:57.779Z,10.06
2019-03-30T00:05:29.943Z,10.02
2019-03-30T00:08:03.165Z,9.99
2019-03-30T00:10:35.239Z,9.95
2019-03-30T00:13:08.290Z,9.93
2019-03-30T00:15:40.540Z,9.89
2019-03-30T00:18:12.586Z,9.81
2019-03-30T00:20:44.584Z,9.80
2019-03-30T00:23:16.847Z,9.75
2019-03-30T00:25:48.780Z,9.71
2019-03-30T00:28:20.887Z,9.70
2019-03-30T00:30:53.294Z,9.69
2019-03-30T00:33:25.367Z,9.66
2019-03-30T00:35:57.342Z,9.63
2019-03-30T00:38:29.606Z,9.59
2019-03-30T00:41:01.849Z,9.49
2019-03-30T00:43:33.818Z,9.46
2019-03-30T00:46:05.763Z,9.43
2019-03-30T00:48:37.917Z,9.35
2019-03-30T00:51:09.926Z,9.36
2019-03-30T00:53:42.072Z,9.29
2019-03-30T00:56:14.173Z,9.25
2019-03-30T00:58:46.394Z,9.17
2019-03-30T01:01:19.325Z,9.14
2019-03-30T01:03:51.724Z,9.10
2019-03-30T01:06:24.051Z,9.05
2019-03-30T01:08:56.518Z,9.00
2019-03-30T01:11:28.357Z,8.95
2019-03-30T01:14:00.405Z,8.94
2019-03-30T01:16:32.334Z,8.93
2019-03-30T01:19:04.477Z,8.91
2019-03-30T01:21:36.722Z,8.86
2019-03-30T01:24:09.108Z,8.82
2019-03-30T01:26:41.217Z,8.80
2019-03-30T01:29:13.307Z,8.73
2019-03-30T01:31:45.307Z,8.72
2019-03-30T01:34:17.507Z,8.67
2019-03-30T01:36:49.740Z,8.66
2019-03-30T01:39:21.773Z,8.63
2019-03-30T01:41:53.867Z,8.56
2019-03-30T01:44:26.190Z,8.47
2019-03-30T01:46:58.337Z,8.48
2019-03-30T01:49:30.408Z,8.43
2019-03-30T01:52:02.756Z,8.41
2019-03-30T01:54:35.367Z,8.43
2019-03-30T01:57:07.432Z,8.40
2019-03-30T01:59:39.419Z,8.44
2019-03-30T02:02:11.454Z,8.43
2019-03-30T02:04:43.664Z,8.40
2019-03-30T02:07:18.078Z,8.40
2019-03-30T02:09:50.126Z,8.34
2019-03-30T02:12:22.044Z,8.30
2019-03-30T02:14:53.938Z,8.28
2019-03-30T02:17:27.598Z,8.26
2019-03-30T02:19:59.805Z,8.27
2019-03-30T02:22:31.618Z,8.16
2019-03-30T02:25:03.974Z,8.09
2019-03-30T02:27:36.373Z,8.09
2019-03-30T02:30:08.771Z,8.09
2019-03-30T02:32:40.819Z,8.02
2019-03-30T02:35:13.021Z,8.06
2019-03-30T02:37:45.315Z,8.05
2019-03-30T02:40:17.571Z,8.01
2019-03-30T02:42:49.764Z,7.93
2019-03-30T02:45:21.655Z,7.92
2019-03-30T02:47:53.663Z,7.91
2019-03-30T02:50:25.562Z,7.93
2019-03-30T02:52:58.134Z,7.95
2019-03-30T02:55:30.508Z,7.95
2019-03-30T02:58:02.785Z,7.93
2019-03-30T03:00:35.060Z,8.00
2019-03-30T03:03:07.490Z,8.02
2019-03-30T03:05:40.229Z,8.00
2019-03-30T03:08:14.346Z,7.94
2019-03-30T03:10:47.391Z,7.92
2019-03-30T03:13:19.454Z,7.89
2019-03-30T03:15:51.823Z,7.91
2019-03-30T03:18:25.873Z,7.89
2019-03-30T03:21:07.344Z,7.85
2019-03-30T03:23:31.972Z,7.80
2019-03-30T03:26:03.811Z,7.79
2019-03-30T03:28:35.736Z,7.80
2019-03-30T03:31:07.768Z,7.84
2019-03-30T03:33:39.564Z,7.75
2019-03-30T03:36:12.615Z,7.70
2019-03-30T03:38:44.963Z,7.71
2019-03-30T03:41:16.997Z,7.77
2019-03-30T03:43:49.140Z,7.76
2019-03-30T03:46:21.337Z,7.84
2019-03-30T03:48:53.464Z,7.89
2019-03-30T03:51:27.207Z,7.95
2019-03-30T03:54:00.203Z,7.92
2019-03-30T03:56:33.866Z,8.02
2019-03-30T03:59:06.568Z,8.05
2019-03-30T04:01:40.021Z,8.04
2019-03-30T04:04:14.082Z,8.06
2019-03-30T04:06:47.738Z,8.19
2019-03-30T04:09:22.723Z,8.20
2019-03-30T04:11:55.400Z,8.23
2019-03-30T04:14:30.015Z,8.28
2019-03-30T04:17:02.155Z,8.32
2019-03-30T04:19:34.158Z,8.35
2019-03-30T04:22:06.381Z,8.41
2019-03-30T04:24:38.182Z,8.38
2019-03-30T04:27:10.258Z,8.36
2019-03-30T04:29:42.186Z,8.35
2019-03-30T04:32:14.590Z,8.38
2019-03-30T04:34:46.937Z,8.46
2019-03-30T04:37:18.941Z,8.50
2019-03-30T04:39:50.996Z,8.46
2019-03-30T04:42:22.949Z,8.48
2019-03-30T04:44:55.111Z,8.52
2019-03-30T04:47:27.569Z,8.59
2019-03-30T04:49:59.396Z,8.64
2019-03-30T04:52:31.378Z,8.69
2019-03-30T04:55:03.463Z,8.68
2019-03-30T04:57:35.572Z,8.72
2019-03-30T05:00:08.567Z,8.74
2019-03-30T05:02:40.488Z,8.74
2019-03-30T05:05:12.867Z,8.74
2019-03-30T05:07:44.720Z,8.78
2019-03-30T05:10:17.078Z,8.82
2019-03-30T05:12:49.076Z,8.88
2019-03-30T05:15:21.342Z,8.87
2019-03-30T05:17:53.318Z,8.87
2019-03-30T05:20:25.562Z,8.94
2019-03-30T05:22:57.556Z,8.94
2019-03-30T05:25:29.683Z,8.92
2019-03-30T05:28:01.491Z,8.94
2019-03-30T05:30:33.546Z,8.95
2019-03-30T05:33:06.509Z,8.94
2019-03-30T05:35:38.498Z,8.99
2019-03-30T05:38:10.539Z,9.01
2019-03-30T05:40:42.909Z,9.09
2019-03-30T05:43:14.986Z,9.15
2019-03-30T05:45:47.318Z,9.16
2019-03-30T05:48:19.698Z,9.22
2019-03-30T05:50:51.621Z,9.16
2019-03-30T05:53:23.767Z,9.19
2019-03-30T05:55:55.743Z,9.25
2019-03-30T05:58:27.785Z,9.30
2019-03-30T06:00:59.645Z,9.41
2019-03-30T06:03:31.647Z,9.70
2019-03-30T06:06:03.555Z,9.97
2019-03-30T06:08:36.417Z,10.25
2019-03-30T06:11:08.255Z,10.35
2019-03-30T06:13:40.252Z,10.48
2019-03-30T06:16:12.355Z,10.52
2019-03-30T06:18:44.303Z,10.65
2019-03-30T06:21:16.178Z,11.03
2019-03-30T06:23:48.785Z,10.87
2019-03-30T06:26:20.922Z,10.88
2019-03-30T06:28:52.940Z,10.88
2019-03-30T06:31:25.424Z,10.97
2019-03-30T06:33:57.614Z,11.22
2019-03-30T06:36:29.671Z,11.39
2019-03-30T06:39:01.746Z,11.80
2019-03-30T06:41:35.266Z,12.20
2019-03-30T06:44:07.251Z,12.12
2019-03-30T06:46:39.685Z,11.53
2019-03-30T06:49:11.941Z,11.69
2019-03-30T06:51:43.860Z,11.62
2019-03-30T06:54:16.970Z,11.65
2019-03-30T06:56:49.097Z,11.56
2019-03-30T06:59:21.070Z,11.50
2019-03-30T07:01:53.331Z,11.71
2019-03-30T07:04:25.492Z,11.81
2019-03-30T07:06:57.968Z,12.15
2019-03-30T07:09:32.357Z,12.52
2019-03-30T07:12:05.272Z,13.19
2019-03-30T07:14:38.897Z,13.85
2019-03-30T07:17:12.898Z,13.92
2019-03-30T07:19:48.018Z,14.24
2019-03-30T07:22:20.215Z,14.44
2019-03-30T07:24:52.332Z,14.30
2019-03-30T07:27:24.432Z,14.51
2019-03-30T07:29:58.692Z,14.93
2019-03-30T07:32:30.740Z,15.67
2019-03-30T07:35:02.729Z,14.04
2019-03-30T07:37:34.648Z,14.04
2019-03-30T07:40:07.149Z,14.33
2019-03-30T07:42:39.197Z,14.51
2019-03-30T07:45:11.942Z,14.18
2019-03-30T07:47:44.234Z,14.18
2019-03-30T07:50:16.624Z,13.89
2019-03-30T07:52:48.640Z,13.85
2019-03-30T07:55:20.725Z,14.81
2019-03-30T07:57:52.872Z,16.47
2019-03-30T08:00:30.525Z,17.39
2019-03-30T08:02:58.902Z,17.21
2019-03-30T08:05:30.758Z,17.81
2019-03-30T08:08:02.711Z,18.31
2019-03-30T08:10:34.882Z,17.85
2019-03-30T08:13:07.120Z,15.81
2019-03-30T08:15:39.322Z,15.00
2019-03-30T08:18:11.378Z,14.24
2019-03-30T08:20:43.204Z,14.64
2019-03-30T08:23:15.374Z,15.27
2019-03-30T08:25:47.397Z,15.13
2019-03-30T08:28:19.246Z,15.50
2019-03-30T08:30:51.204Z,15.24
2019-03-30T08:33:23.574Z,15.62
2019-03-30T08:35:55.594Z,15.52
2019-03-30T08:38:27.743Z,15.45
2019-03-30T08:41:00.288Z,15.00
2019-03-30T08:43:33.808Z,14.74
2019-03-30T08:46:06.165Z,15.90
2019-03-30T08:48:38.262Z,16.35
2019-03-30T08:51:10.265Z,16.25
2019-03-30T08:53:54.378Z,16.91
2019-03-30T08:56:18.515Z,16.10
2019-03-30T08:58:50.712Z,15.95
2019-03-30T09:01:22.816Z,16.15
2019-03-30T09:03:55.227Z,16.22
2019-03-30T09:06:27.552Z,17.43
2019-03-30T09:08:59.626Z,17.13
2019-03-30T09:11:33.809Z,17.79
2019-03-30T09:14:05.823Z,16.90
2019-03-30T09:16:38.090Z,17.07
2019-03-30T09:19:10.146Z,16.26
2019-03-30T09:21:42.277Z,16.01
2019-03-30T09:24:14.423Z,15.70
2019-03-30T09:26:46.355Z,15.72
2019-03-30T09:29:18.548Z,15.92
2019-03-30T09:31:50.526Z,16.24
2019-03-30T09:34:22.612Z,17.21
2019-03-30T09:36:54.851Z,17.08
2019-03-30T09:39:26.900Z,16.82
2019-03-30T09:41:59.023Z,16.36
2019-03-30T09:44:31.170Z,16.42
2019-03-30T09:47:03.333Z,16.18
2019-03-30T09:49:35.555Z,16.10
2019-03-30T09:52:07.556Z,15.82
2019-03-30T09:54:40.735Z,16.31
2019-03-30T09:57:12.912Z,16.41
2019-03-30T09:59:45.044Z,16.41
2019-03-30T10:02:16.866Z,16.58
2019-03-30T10:04:49.058Z,16.74
2019-03-30T10:07:21.203Z,16.53
2019-03-30T10:09:54.233Z,15.67
2019-03-30T10:12:26.516Z,15.70
2019-03-30T10:14:58.822Z,16.12
2019-03-30T10:17:30.994Z,16.21
2019-03-30T10:20:04.729Z,16.03
2019-03-30T10:22:36.643Z,15.62
2019-03-30T10:25:08.834Z,15.68
2019-03-30T10:27:41.046Z,15.62
2019-03-30T10:30:14.166Z,16.16
2019-03-30T10:32:47.373Z,16.07
2019-03-30T10:35:19.554Z,16.40
2019-03-30T10:37:51.550Z,16.48
2019-03-30T10:40:23.537Z,16.95
2019-03-30T10:42:55.607Z,17.35
2019-03-30T10:45:27.819Z,17.57
2019-03-30T10:47:59.918Z,16.93
2019-03-30T10:50:32.042Z,17.72
2019-03-30T10:53:04.198Z,18.03
2019-03-30T10:55:37.148Z,17.74
2019-03-30T10:58:09.588Z,17.00
2019-03-30T11:00:43.424Z,17.10
2019-03-30T11:03:15.446Z,17.89
2019-03-30T11:05:47.442Z,18.21
2019-03-30T11:08:20.549Z,18.39
2019-03-30T11:10:52.810Z,18.69
2019-03-30T11:13:25.010Z,17.94
2019-03-30T11:15:57.260Z,17.01
2019-03-30T11:18:29.763Z,17.56
2019-03-30T11:21:01.819Z,17.21
2019-03-30T11:23:33.781Z,17.13
2019-03-30T11:26:06.859Z,17.69
2019-03-30T11:28:38.977Z,18.30
2019-03-30T11:31:11.132Z,18.58
2019-03-30T11:33:43.099Z,18.44
2019-03-30T11:36:18.362Z,18.15
2019-03-30T11:38:48.773Z,19.07
2019-03-30T11:41:24.735Z,19.06
2019-03-30T11:43:55.170Z,19.10
2019-03-30T11:46:27.125Z,18.67
2019-03-30T11:48:59.109Z,18.60
2019-03-30T11:51:31.233Z,18.28
2019-03-30T11:54:05.337Z,19.15
2019-03-30T11:56:37.249Z,19.31
2019-03-30T11:59:09.274Z,19.59
2019-03-30T12:01:41.181Z,19.49
2019-03-30T12:04:13.348Z,19.28
2019-03-30T12:06:46.061Z,18.77
2019-03-30T12:09:18.256Z,18.59
2019-03-30T12:11:50.595Z,19.09
2019-03-30T12:14:22.480Z,19.01
2019-03-30T12:16:54.641Z,19.48
2019-03-30T12:19:26.684Z,19.99
2019-03-30T12:21:58.677Z,19.51
2019-03-30T12:24:31.317Z,19.89
2019-03-30T12:27:03.464Z,19.67
2019-03-30T12:29:35.997Z,20.10
2019-03-30T12:32:08.157Z,20.99
2019-03-30T12:34:40.183Z,20.61
2019-03-30T12:37:13.177Z,20.97
2019-03-30T12:39:45.593Z,21.11
2019-03-30T12:42:17.722Z,20.55
2019-03-30T12:44:49.735Z,21.26
2019-03-30T12:47:22.132Z,21.18
2019-03-30T12:49:54.027Z,21.45
2019-03-30T12:52:26.685Z,22.42
2019-03-30T12:54:58.755Z,21.45
2019-03-30T12:57:31.107Z,21.23
2019-03-30T13:00:03.176Z,19.63
2019-03-30T13:02:35.473Z,20.54
2019-03-30T13:05:07.873Z,21.13
2019-03-30T13:07:39.960Z,20.68
2019-03-30T13:10:12.268Z,22.03
2019-03-30T13:12:44.281Z,22.68
2019-03-30T13:15:16.264Z,22.27
2019-03-30T13:17:49.667Z,21.56
2019-03-30T13:20:21.806Z,22.07
2019-03-30T13:22:55.317Z,22.35
2019-03-30T13:25:27.197Z,21.51
2019-03-30T13:27:59.814Z,21.07
2019-03-30T13:30:31.946Z,20.46
2019-03-30T13:33:04.431Z,20.58
2019-03-30T13:35:36.687Z,20.69
2019-03-30T13:38:09.147Z,20.80
2019-03-30T13:40:42.737Z,21.03
2019-03-30T13:43:15.102Z,21.40
2019-03-30T13:45:47.624Z,22.41
2019-03-30T13:48:19.710Z,22.90
2019-03-30T13:50:51.580Z,21.77
2019-03-30T13:53:23.879Z,21.40
2019-03-30T13:55:56.166Z,21.76
2019-03-30T13:58:28.117Z,21.50
2019-03-30T14:01:00.039Z,21.23
2019-03-30T14:03:32.284Z,20.25
2019-03-30T14:06:04.277Z,19.79
2019-03-30T14:08:37.427Z,20.22
2019-03-30T14:11:09.467Z,19.85
2019-03-30T14:13:41.808Z,19.72
2019-03-30T14:16:14.054Z,19.54
2019-03-30T14:18:46.077Z,19.06
2019-03-30T14:21:18.135Z,19.28
2019-03-30T14:23:50.036Z,19.55
2019-03-30T14:26:31.223Z,19.15
2019-03-30T14:28:55.943Z,18.44
2019-03-30T14:31:28.119Z,19.05
2019-03-30T14:34:00.346Z,18.82
2019-03-30T14:36:32.263Z,18.83
2019-03-30T14:39:05.101Z,18.73
2019-03-30T14:41:37.391Z,18.71
2019-03-30T14:44:09.705Z,18.67
2019-03-30T14:46:43.454Z,18.20
2019-03-30T14:49:15.626Z,18.17
2019-03-30T14:51:48.436Z,18.34
2019-03-30T14:54:20.542Z,18.30
2019-03-30T14:56:52.721Z,18.23
2019-03-30T14:59:24.798Z,18.12
2019-03-30T15:01:57.078Z,18.00
2019-03-30T15:04:29.326Z,17.98
2019-03-30T15:07:01.740Z,17.78
2019-03-30T15:09:33.850Z,17.70
2019-03-30T15:12:05.932Z,18.00
2019-03-30T15:14:38.270Z,17.97
2019-03-30T15:17:11.190Z,17.98
2019-03-30T15:19:43.421Z,17.99
2019-03-30T15:22:15.327Z,17.97
2019-03-30T15:24:47.232Z,17.72
2019-03-30T15:27:19.349Z,17.68
2019-03-30T15:29:51.330Z,17.98
2019-03-30T15:32:23.534Z,17.94
2019-03-30T15:34:58.225Z,17.97
2019-03-30T15:37:29.161Z,17.80
2019-03-30T15:40:01.123Z,17.77
2019-03-30T15:42:33.588Z,17.74
2019-03-30T15:45:14.204Z,17.56
2019-03-30T15:47:47.058Z,17.52
2019-03-30T15:50:19.294Z,17.48
2019-03-30T15:52:51.524Z,17.48
2019-03-30T15:55:23.927Z,17.46
2019-03-30T15:57:56.445Z,17.49
2019-03-30T16:00:28.559Z,17.40
2019-03-30T16:03:00.652Z,17.35
2019-03-30T16:05:33.000Z,17.29
2019-03-30T16:08:05.069Z,17.19
2019-03-30T16:10:38.818Z,17.21
2019-03-30T16:13:14.361Z,17.12
2019-03-30T16:15:44.823Z,17.02
2019-03-30T16:18:17.303Z,17.02
2019-03-30T16:20:49.464Z,16.96
2019-03-30T16:23:22.551Z,16.96
2019-03-30T16:25:54.715Z,16.92
2019-03-30T16:28:26.993Z,16.88
2019-03-30T16:30:59.071Z,16.92
2019-03-30T16:33:31.576Z,16.83
2019-03-30T16:36:03.592Z,16.86
2019-03-30T16:38:35.463Z,16.81
2019-03-30T16:41:07.794Z,16.74
2019-03-30T16:43:40.183Z,16.74
2019-03-30T16:46:12.392Z,16.63
2019-03-30T16:48:45.733Z,16.60
2019-03-30T16:51:17.942Z,16.58
2019-03-30T16:53:50.562Z,16.34
2019-03-30T16:56:22.669Z,16.35
2019-03-30T16:58:55.032Z,16.36
2019-03-30T17:01:27.543Z,16.29
2019-03-30T17:04:00.042Z,16.00
2019-03-30T17:06:32.346Z,16.00
2019-03-30T17:09:05.987Z,16.06
2019-03-30T17:11:36.877Z,16.02
2019-03-30T17:14:07.525Z,15.89
2019-03-30T17:16:38.172Z,15.89
2019-03-30T17:19:08.874Z,15.79
2019-03-30T17:21:39.825Z,15.70
2019-03-30T17:24:11.952Z,15.72
2019-03-30T17:26:44.162Z,15.63
2019-03-30T17:29:17.468Z,15.63
2019-03-30T17:31:49.689Z,15.47
2019-03-30T17:34:22.094Z,15.52
2019-03-30T17:36:55.517Z,15.45
2019-03-30T17:39:28.690Z,15.35
2019-03-30T17:42:00.706Z,15.30
2019-03-30T17:44:33.099Z,15.20
2019-03-30T17:47:05.226Z,15.21
2019-03-30T17:49:37.315Z,15.19
2019-03-30T17:52:09.955Z,15.09
2019-03-30T17:54:42.408Z,15.05
2019-03-30T17:57:17.296Z,15.03
2019-03-30T17:59:48.534Z,14.98
2019-03-30T18:02:23.095Z,14.96
2019-03-30T18:04:54.683Z,14.89
2019-03-30T18:07:26.822Z,14.88
2019-03-30T18:09:59.448Z,14.83
2019-03-30T18:12:31.962Z,14.74
2019-03-30T18:15:04.615Z,14.70
2019-03-30T18:17:36.767Z,14.59
2019-03-30T18:20:09.214Z,14.48
2019-03-30T18:22:41.849Z,14.54
2019-03-30T18:25:14.336Z,14.40
2019-03-30T18:27:46.468Z,14.42
2019-03-30T18:30:25.425Z,14.30
2019-03-30T18:32:59.119Z,14.28
2019-03-30T18:35:32.906Z,14.19
2019-03-30T18:38:05.198Z,14.10
2019-03-30T18:40:37.482Z,14.13
2019-03-30T18:43:09.916Z,14.04
2019-03-30T18:45:42.113Z,13.94
2019-03-30T18:48:17.851Z,13.98
2019-03-30T18:50:50.176Z,13.83
2019-03-30T18:53:22.358Z,13.92
2019-03-30T18:55:54.781Z,13.88
2019-03-30T18:58:41.117Z,13.84
2019-03-30T19:01:02.132Z,13.75
2019-03-30T19:03:34.372Z,13.69
2019-03-30T19:06:07.725Z,13.61
2019-03-30T19:08:42.182Z,13.56
2019-03-30T19:11:14.186Z,13.40
2019-03-30T19:13:46.601Z,13.46
2019-03-30T19:16:18.753Z,13.37
2019-03-30T19:18:50.782Z,13.24
2019-03-30T19:21:23.230Z,13.17
2019-03-30T19:23:55.271Z,13.04
2019-03-30T19:26:27.328Z,13.11
2019-03-30T19:28:59.410Z,12.89
2019-03-30T19:31:31.720Z,13.03
2019-03-30T19:34:04.003Z,12.77
2019-03-30T19:36:36.332Z,12.76
2019-03-30T19:39:10.424Z,12.80
2019-03-30T19:41:42.539Z,12.83
2019-03-30T19:44:14.855Z,12.78
2019-03-30T19:46:46.978Z,12.86
2019-03-30T19:49:19.199Z,12.88
2019-03-30T19:51:51.397Z,12.69
2019-03-30T19:54:23.595Z,12.71
2019-03-30T19:56:56.215Z,12.71
2019-03-30T19:59:28.361Z,12.69
2019-03-30T20:02:00.473Z,12.73
2019-03-30T20:04:31.193Z,12.85
2019-03-30T20:07:02.112Z,12.76
2019-03-30T20:09:34.385Z,12.69
2019-03-30T20:12:07.083Z,12.71
2019-03-30T20:14:39.475Z,12.75
2019-03-30T20:17:11.453Z,12.53
2019-03-30T20:19:43.718Z,12.55
2019-03-30T20:22:16.261Z,12.52
2019-03-30T20:24:49.312Z,12.38
2019-03-30T20:27:21.646Z,12.39
2019-03-30T20:29:54.179Z,12.18
2019-03-30T20:32:26.420Z,12.18
2019-03-30T20:34:58.924Z,12.31
2019-03-30T20:37:32.275Z,12.23
2019-03-30T20:40:05.105Z,12.28
2019-03-30T20:42:37.289Z,12.03
2019-03-30T20:45:10.217Z,11.82
2019-03-30T20:47:42.512Z,12.01
2019-03-30T20:50:15.963Z,11.96
2019-03-30T20:52:48.088Z,11.93
2019-03-30T20:55:20.300Z,11.97
2019-03-30T20:57:52.492Z,11.87
2019-03-30T21:00:24.559Z,11.95
2019-03-30T21:02:56.721Z,11.96
2019-03-30T21:05:29.100Z,11.96
2019-03-30T21:08:01.517Z,12.06
2019-03-30T21:10:33.844Z,11.95
2019-03-30T21:13:06.063Z,11.90
2019-03-30T21:15:38.181Z,11.85
2019-03-30T21:18:10.456Z,11.74
2019-03-30T21:20:42.916Z,11.68
2019-03-30T21:23:15.230Z,11.59
2019-03-30T21:25:47.364Z,11.43
2019-03-30T21:28:19.867Z,11.45
2019-03-30T21:30:52.066Z,11.40
2019-03-30T21:33:25.903Z,11.45
2019-03-30T21:35:58.368Z,11.36
2019-03-30T21:38:31.459Z,11.25
2019-03-30T21:41:03.805Z,11.43
2019-03-30T21:43:35.959Z,11.41
2019-03-30T21:46:08.013Z,11.33
2019-03-30T21:48:40.027Z,11.30
2019-03-30T21:51:12.842Z,11.39
2019-03-30T21:53:46.013Z,11.32
2019-03-30T21:56:17.994Z,11.39
2019-03-30T21:58:49.897Z,11.20
2019-03-30T22:01:21.856Z,11.27
2019-03-30T22:03:53.866Z,11.18
2019-03-30T22:06:25.965Z,11.17
2019-03-30T22:08:58.002Z,11.23
2019-03-30T22:11:30.082Z,11.09
2019-03-30T22:14:02.581Z,11.14
2019-03-30T22:16:34.566Z,11.13
2019-03-30T22:19:06.718Z,11.03
2019-03-30T22:21:38.836Z,11.04
2019-03-30T22:24:11.060Z,10.96
2019-03-30T22:26:43.098Z,10.89
2019-03-30T22:29:14.968Z,10.87
2019-03-30T22:31:47.183Z,10.95
2019-03-30T22:34:19.198Z,11.09
2019-03-30T22:36:51.182Z,11.03
2019-03-30T22:39:23.137Z,10.91
2019-03-30T22:41:55.225Z,10.81
2019-03-30T22:44:27.135Z,10.74
2019-03-30T22:46:59.142Z,10.79
2019-03-30T22:49:31.101Z,10.78
2019-03-30T22:52:03.113Z,10.65
2019-03-30T22:54:35.258Z,10.70
2019-03-30T22:57:08.204Z,10.79
2019-03-30T22:59:40.338Z,10.72
2019-03-30T23:02:12.807Z,10.71
2019-03-30T23:04:44.769Z,10.63
2019-03-30T23:07:16.758Z,10.55
2019-03-30T23:09:48.771Z,10.52
2019-03-30T23:12:20.770Z,10.63
2019-03-30T23:14:54.357Z,10.65
2019-03-30T23:17:26.260Z,10.62
2019-03-30T23:19:58.699Z,10.62
2019-03-30T23:22:30.627Z,10.50
2019-03-30T23:25:02.571Z,10.47
2019-03-30T23:27:34.779Z,10.43
2019-03-30T23:30:07.744Z,10.41
2019-03-30T23:32:39.904Z,10.29
2019-03-30T23:35:12.189Z,10.19
2019-03-30T23:37:44.155Z,10.17
2019-03-30T23:40:16.476Z,10.11
2019-03-30T23:42:48.685Z,10.07
2019-03-30T23:45:20.680Z,10.03
2019-03-30T23:47:52.630Z,10.07
2019-03-30T23:50:24.691Z,9.98
2019-03-30T23:52:55.568Z,9.95
2019-03-30T23:55:26.143Z,9.84
2019-03-30T23:57:56.829Z,9.89
